Latest Weather Observations for North Head

IDN60801

Issued at 3:03 am EST Monday 25 May 2015 (issued every 30 minutes, with the page automatically refreshed every 10 minutes)

About weather observations | Map of weather stations | Latest weather observations for NSW | Other Formats
Station Details ID: 066197 Name: NORTH HEAD Lat: -33.82 Lon: 151.30 Height: 90.0 m
Data from the previous 72 hours. | See also: Recent months for locations in New South Wales
Date/Time
EST
Temp
°C
App
Temp
°C
Dew
Point
Rel
Hum
%
Delta-T
°C
Wind Press
QNH
hPa
Press
MSL
hPa
Rain
since 9 am
mm
Dir
 
Spd
km/h
Gust
km/h
Spd
kts
Gust
kts
25/03:00am - - - - - W 17 20 9 11 - - -
25/02:30am - - - - - W 17 22 9 12 - - -
25/02:00am - - - - - W 17 20 9 11 - - -
25/01:30am - - - - - W 15 19 8 10 - - -
25/01:00am - - - - - W 11 15 6 8 - - -
25/12:30am - - - - - W 15 19 8 10 - - -
25/12:00am - - - - - W 13 15 7 8 - - -
 
Date/Time
EST
Temp
°C
App
Temp
°C
Dew
Point
Rel
Hum
%
Delta-T
°C
Wind Press
QNH
hPa
Press
MSL
hPa
Rain
since 9 am
mm
Dir
 
Spd
km/h
Gust
km/h
Spd
kts
Gust
kts
24/11:30pm - - - - - WNW 7 9 4 5 - - -
24/11:00pm - - - - - NW 6 7 3 4 - - -
24/10:30pm - - - - - NW 7 9 4 5 - - -
24/10:00pm - - - - - NW 7 7 4 4 - - -
24/09:30pm - - - - - NW 7 7 4 4 - - -
24/09:00pm - - - - - CALM 0 4 0 2 - - -
24/08:30pm - - - - - CALM 0 2 0 1 - - -
24/08:00pm - - - - - SW 2 4 1 2 - - -
24/07:30pm - - - - - CALM 0 0 0 0 - - -
24/07:00pm - - - - - CALM 0 0 0 0 - - -
24/06:30pm - - - - - CALM 0 0 0 0 - - -
24/06:00pm - - - - - CALM 0 0 0 0 - - -
24/05:30pm - - - - - S 4 6 2 3 - - -
24/05:00pm - - - - - SE 4 6 2 3 - - -
24/04:30pm - - - - - S 6 7 3 4 - - -
24/04:00pm - - - - - SSE 6 9 3 5 - - -
24/03:30pm - - - - - SSE 7 9 4 5 - - -
24/03:00pm - - - - - SSE 9 13 5 7 - - -
24/02:30pm - - - - - S 7 13 4 7 - - -
24/02:00pm - - - - - S 9 15 5 8 - - -
24/01:30pm - - - - - WSW 6 9 3 5 - - -
24/01:00pm - - - - - WSW 9 13 5 7 - - -
24/12:30pm - - - - - W 9 17 5 9 - - -
24/12:00pm - - - - - W 13 20 7 11 - - -
24/11:30am - - - - - WNW 15 19 8 10 - - -
24/11:00am - - - - - W 15 20 8 11 - - -
24/10:30am - - - - - WSW 15 20 8 11 - - -
24/10:00am - - - - - W 17 24 9 13 - - -
24/09:30am - - - - - W 17 22 9 12 - - -
24/09:00am - - - - - W 15 20 8 11 - - -
24/08:30am - - - - - WNW 17 22 9 12 - - -
24/08:00am - - - - - W 17 22 9 12 - - -
24/07:30am - - - - - WNW 19 24 10 13 - - -
24/07:00am - - - - - W 20 28 11 15 - - -
24/06:30am - - - - - W 20 26 11 14 - - -
24/06:00am - - - - - W 20 30 11 16 - - -
24/05:30am - - - - - W 17 24 9 13 - - -
24/05:00am - - - - - W 22 28 12 15 - - -
24/04:30am - - - - - W 15 20 8 11 - - -
24/04:00am - - - - - W 17 22 9 12 - - -
24/03:30am - - - - - W 17 20 9 11 - - -
24/03:00am - - - - - W 15 20 8 11 - - -
24/02:30am - - - - - WNW 15 20 8 11 - - -
24/02:00am - - - - - WNW 13 17 7 9 - - -
24/01:30am - - - - - W 13 15 7 8 - - -
24/01:00am - - - - - W 13 15 7 8 - - -
24/12:30am - - - - - WNW 13 17 7 9 - - -
24/12:00am - - - - - WNW 13 17 7 9 - - -
 
Date/Time
EST
Temp
°C
App
Temp
°C
Dew
Point
Rel
Hum
%
Delta-T
°C
Wind Press
QNH
hPa
Press
MSL
hPa
Rain
since 9 am
mm
Dir
 
Spd
km/h
Gust
km/h
Spd
kts
Gust
kts
23/11:30pm - - - - - WNW 11 17 6 9 - - -
23/11:00pm - - - - - WNW 11 17 6 9 - - -
23/10:30pm - - - - - WNW 9 13 5 7 - - -
23/10:00pm - - - - - W 9 13 5 7 - - -
23/09:30pm - - - - - SW 11 17 6 9 - - -
23/09:00pm - - - - - S 13 20 7 11 - - -
23/08:30pm - - - - - S 17 28 9 15 - - -
23/08:00pm - - - - - S 13 20 7 11 - - -
23/07:30pm - - - - - S 15 24 8 13 - - -
23/07:00pm - - - - - S 15 22 8 12 - - -
23/06:30pm - - - - - S 17 26 9 14 - - -
23/06:00pm - - - - - S 19 30 10 16 - - -
23/05:30pm - - - - - S 19 28 10 15 - - -
23/05:00pm - - - - - SSW 15 24 8 13 - - -
23/04:30pm - - - - - SSW 17 24 9 13 - - -
23/04:00pm - - - - - SSW 15 24 8 13 - - -
23/03:30pm - - - - - SSW 17 30 9 16 - - -
23/03:00pm - - - - - SSW 19 28 10 15 - - -
23/02:30pm - - - - - SSW 19 26 10 14 - - -
23/02:00pm - - - - - S 19 37 10 20 - - -
23/01:30pm - - - - - SSW 19 32 10 17 - - -
23/01:00pm - - - - - SSW 20 30 11 16 - - -
23/12:30pm - - - - - S 19 37 10 20 - - -
23/12:00pm - - - - - SSW 17 30 9 16 - - -
23/11:30am - - - - - SSW 20 32 11 17 - - -
23/11:00am - - - - - SW 17 28 9 15 - - -
23/10:30am - - - - - WSW 19 28 10 15 - - -
23/10:00am - - - - - WSW 17 26 9 14 - - -
23/09:30am - - - - - W 17 26 9 14 - - -
23/09:00am - - - - - WSW 17 24 9 13 - - -
23/08:30am - - - - - WSW 19 30 10 16 - - -
23/08:00am - - - - - WSW 19 32 10 17 - - -
23/07:30am - - - - - W 19 26 10 14 - - -
23/07:00am - - - - - WSW 19 24 10 13 - - -
23/06:30am - - - - - W 19 26 10 14 - - -
23/06:00am - - - - - W 17 26 9 14 - - -
23/05:30am - - - - - W 17 24 9 13 - - -
23/05:00am - - - - - WSW 17 26 9 14 - - -
23/04:30am - - - - - WSW 20 33 11 18 - - -
23/04:00am - - - - - WSW 17 24 9 13 - - -
23/03:30am - - - - - WSW 15 24 8 13 - - -
23/03:00am - - - - - WSW 20 33 11 18 - - -
23/02:30am - - - - - WSW 19 28 10 15 - - -
23/02:00am - - - - - WSW 15 28 8 15 - - -
23/01:30am - - - - - WSW 17 26 9 14 - - -
23/01:00am - - - - - WSW 9 20 5 11 - - -
23/12:30am - - - - - SW 11 24 6 13 - - -
23/12:00am - - - - - W 17 30 9 16 - - -
 
Date/Time
EST
Temp
°C
App
Temp
°C
Dew
Point
Rel
Hum
%
Delta-T
°C
Wind Press
QNH
hPa
Press
MSL
hPa
Rain
since 9 am
mm
Dir
 
Spd
km/h
Gust
km/h
Spd
kts
Gust
kts
22/11:30pm - - - - - W 17 28 9 15 - - -
22/11:00pm - - - - - S 20 43 11 23 - - -
22/10:30pm - - - - - S 28 44 15 24 - - -
22/10:00pm - - - - - S 30 54 16 29 - - -
22/09:57pm - - - - - S 28 54 15 29 - - -
22/09:30pm - - - - - SSE 33 48 18 26 - - -
22/09:09pm - - - - - S 20 56 11 30 - - -
22/09:00pm - - - - - SSW 20 50 11 27 - - -
22/08:32pm - - - - - SSE 33 54 18 29 - - -
22/08:30pm - - - - - SSE 37 54 20 29 - - -
22/08:00pm - - - - - SSE 37 57 20 31 - - -
22/07:36pm - - - - - SSE 44 65 24 35 - - -
22/07:30pm - - - - - S 43 61 23 33 - - -
22/07:20pm - - - - - SSW 26 54 14 29 - - -
22/07:00pm - - - - - S 32 57 17 31 - - -
22/06:48pm - - - - - SSE 37 57 20 31 - - -
22/06:43pm - - - - - S 35 57 19 31 - - -
22/06:31pm - - - - - SSW 26 46 14 25 - - -
22/06:30pm - - - - - SSW 28 46 15 25 - - -
22/06:25pm - - - - - S 30 50 16 27 - - -
22/06:00pm - - - - - S 37 57 20 31 - - -
22/05:30pm - - - - - S 39 59 21 32 - - -
22/05:00pm - - - - - S 41 63 22 34 - - -
22/04:30pm - - - - - S 44 69 24 37 - - -
22/04:00pm - - - - - S 41 63 22 34 - - -
22/03:30pm - - - - - S 46 67 25 36 - - -
22/03:00pm - - - - - S 46 74 25 40 - - -
22/02:30pm - - - - - S 43 63 23 34 - - -
22/02:00pm - - - - - S 41 61 22 33 - - -
22/01:30pm - - - - - S 46 70 25 38 - - -
22/01:00pm - - - - - S 50 74 27 40 - - -
22/12:30pm - - - - - S 52 76 28 41 - - -
22/12:00pm - - - - - SSE 46 78 25 42 - - -
22/11:30am - - - - - SSE 54 85 29 46 - - -
22/11:00am - - - - - SSE 52 85 28 46 - - -
22/10:41am - - - - - S 46 82 25 44 - - -
22/10:30am - - - - - SSE 30 48 16 26 - - -
22/10:00am - - - - - SSE 37 57 20 31 - - -
22/09:30am - - - - - SSE 39 59 21 32 - - -
22/09:00am - - - - - SSE 46 69 25 37 - - -
22/08:37am - - - - - SSE 32 59 17 32 - - -
22/08:34am - - - - - S 22 52 12 28 - - -
22/08:30am - - - - - SSW 17 35 9 19 - - -
22/08:00am - - - - - WSW 19 28 10 15 - - -
22/07:30am - - - - - SW 22 37 12 20 - - -
22/07:00am - - - - - WSW 24 41 13 22 - - -
22/06:30am - - - - - WSW 22 35 12 19 - - -
22/06:00am - - - - - WSW 22 33 12 18 - - -
22/05:30am - - - - - WSW 15 22 8 12 - - -
22/05:00am - - - - - WSW 19 26 10 14 - - -
22/04:30am - - - - - WSW 20 33 11 18 - - -
22/04:00am - - - - - WSW 22 32 12 17 - - -
22/03:30am - - - - - W 22 32 12 17 - - -

Other Formats:

Comma delimited format used in spreadsheet applications
http://www.bom.gov.au/fwo/IDN60801/IDN60801.95768.axf

JavaScript Object Notation format (JSON) in row-major order
http://www.bom.gov.au/fwo/IDN60801/IDN60801.95768.json